sensor_id;sensor_type;location;lat;lon;timestamp;P1;durP1;ratioP1;P2;durP2;ratioP2
68375;SDS011;55318;52.068;5.188;2024-02-14T00:00:13;6.3;;;3.6;;
68375;SDS011;55318;52.068;5.188;2024-02-14T00:01:49;4.3;;;3.5;;
68375;SDS011;55318;52.068;5.188;2024-02-14T00:05:00;4.8;;;3.6;;
68375;SDS011;55318;52.068;5.188;2024-02-14T00:06:37;4.3;;;3.8;;
68375;SDS011;55318;52.068;5.188;2024-02-14T00:08:13;4.41;;;3.3;;
68375;SDS011;55318;52.068;5.188;2024-02-14T00:11:25;3.8;;;3.1;;
68375;SDS011;55318;52.068;5.188;2024-02-14T00:13:02;4.3;;;3.7;;
68375;SDS011;55318;52.068;5.188;2024-02-14T00:14:38;4.3;;;3.8;;
68375;SDS011;55318;52.068;5.188;2024-02-14T00:17:50;5.5;;;3.5;;
68375;SDS011;55318;52.068;5.188;2024-02-14T00:19:26;4.2;;;3.7;;
68375;SDS011;55318;52.068;5.188;2024-02-14T00:21:02;7.2;;;4.91;;
68375;SDS011;55318;52.068;5.188;2024-02-14T00:24:14;5.8;;;4.0;;
68375;SDS011;55318;52.068;5.188;2024-02-14T00:25:50;5.8;;;4.0;;
68375;SDS011;55318;52.068;5.188;2024-02-14T00:27:27;7.2;;;5.2;;
68375;SDS011;55318;52.068;5.188;2024-02-14T00:29:03;5.4;;;4.61;;
68375;SDS011;55318;52.068;5.188;2024-02-14T00:32:18;7.5;;;4.61;;
68375;SDS011;55318;52.068;5.188;2024-02-14T00:33:54;5.6;;;4.41;;
68375;SDS011;55318;52.068;5.188;2024-02-14T00:35:31;7.0;;;5.0;;
68375;SDS011;55318;52.068;5.188;2024-02-14T00:38:43;6.0;;;4.61;;
68375;SDS011;55318;52.068;5.188;2024-02-14T00:40:19;5.4;;;4.8;;
68375;SDS011;55318;52.068;5.188;2024-02-14T00:41:56;5.7;;;4.7;;
68375;SDS011;55318;52.068;5.188;2024-02-14T00:45:08;5.5;;;4.91;;
68375;SDS011;55318;52.068;5.188;2024-02-14T00:46:45;5.5;;;4.91;;
68375;SDS011;55318;52.068;5.188;2024-02-14T00:48:21;5.9;;;4.91;;
68375;SDS011;55318;52.068;5.188;2024-02-14T00:49:57;6.3;;;5.11;;
68375;SDS011;55318;52.068;5.188;2024-02-14T00:53:09;8.0;;;5.3;;
68375;SDS011;55318;52.068;5.188;2024-02-14T00:54:45;10.7;;;5.8;;
68375;SDS011;55318;52.068;5.188;2024-02-14T00:56:21;7.7;;;5.5;;
68375;SDS011;55318;52.068;5.188;2024-02-14T00:59:34;8.6;;;5.3;;
68375;SDS011;55318;52.068;5.188;2024-02-14T01:01:10;6.8;;;5.7;;
68375;SDS011;55318;52.068;5.188;2024-02-14T01:02:46;7.0;;;5.8;;
68375;SDS011;55318;52.068;5.188;2024-02-14T01:06:01;8.0;;;5.7;;
68375;SDS011;55318;52.068;5.188;2024-02-14T01:07:37;9.9;;;6.3;;
68375;SDS011;55318;52.068;5.188;2024-02-14T01:09:13;7.6;;;5.4;;
68375;SDS011;55318;52.068;5.188;2024-02-14T01:10:49;5.9;;;5.3;;
68375;SDS011;55318;52.068;5.188;2024-02-14T01:14:02;6.2;;;5.3;;
68375;SDS011;55318;52.068;5.188;2024-02-14T01:15:38;6.1;;;5.3;;
68375;SDS011;55318;52.068;5.188;2024-02-14T01:17:14;7.5;;;5.2;;
68375;SDS011;55318;52.068;5.188;2024-02-14T01:20:26;7.3;;;5.11;;
68375;SDS011;55318;52.068;5.188;2024-02-14T01:22:02;6.4;;;5.3;;
68375;SDS011;55318;52.068;5.188;2024-02-14T01:23:38;6.2;;;5.6;;
68375;SDS011;55318;52.068;5.188;2024-02-14T01:26:50;7.7;;;6.1;;
68375;SDS011;55318;52.068;5.188;2024-02-14T01:28:26;7.7;;;6.0;;
68375;SDS011;55318;52.068;5.188;2024-02-14T01:30:03;6.8;;;5.8;;
68375;SDS011;55318;52.068;5.188;2024-02-14T01:33:16;7.2;;;5.5;;
68375;SDS011;55318;52.068;5.188;2024-02-14T01:34:52;6.9;;;5.7;;
68375;SDS011;55318;52.068;5.188;2024-02-14T01:36:28;6.2;;;5.6;;
68375;SDS011;55318;52.068;5.188;2024-02-14T01:38:04;6.7;;;5.7;;
68375;SDS011;55318;52.068;5.188;2024-02-14T01:41:16;6.4;;;5.8;;
68375;SDS011;55318;52.068;5.188;2024-02-14T01:42:52;6.6;;;5.3;;
68375;SDS011;55318;52.068;5.188;2024-02-14T01:44:29;8.31;;;5.9;;
68375;SDS011;55318;52.068;5.188;2024-02-14T01:47:42;7.0;;;6.0;;
68375;SDS011;55318;52.068;5.188;2024-02-14T01:49:18;7.9;;;5.8;;
68375;SDS011;55318;52.068;5.188;2024-02-14T01:50:54;8.81;;;6.5;;
68375;SDS011;55318;52.068;5.188;2024-02-14T01:54:06;7.8;;;6.1;;
68375;SDS011;55318;52.068;5.188;2024-02-14T01:55:42;8.4;;;6.2;;
68375;SDS011;55318;52.068;5.188;2024-02-14T01:57:18;11.0;;;6.4;;
68375;SDS011;55318;52.068;5.188;2024-02-14T02:00:32;8.9;;;6.4;;
68375;SDS011;55318;52.068;5.188;2024-02-14T02:02:09;7.6;;;6.4;;
68375;SDS011;55318;52.068;5.188;2024-02-14T02:03:48;10.21;;;6.4;;
68375;SDS011;55318;52.068;5.188;2024-02-14T02:05:24;7.7;;;6.0;;
68375;SDS011;55318;52.068;5.188;2024-02-14T02:08:36;7.2;;;5.5;;
68375;SDS011;55318;52.068;5.188;2024-02-14T02:10:12;8.6;;;5.9;;
68375;SDS011;55318;52.068;5.188;2024-02-14T02:11:49;6.7;;;5.6;;
68375;SDS011;55318;52.068;5.188;2024-02-14T02:15:02;6.7;;;6.0;;
68375;SDS011;55318;52.068;5.188;2024-02-14T02:16:38;7.8;;;6.1;;
68375;SDS011;55318;52.068;5.188;2024-02-14T02:18:14;7.2;;;5.8;;
68375;SDS011;55318;52.068;5.188;2024-02-14T02:19:52;9.31;;;6.1;;
68375;SDS011;55318;52.068;5.188;2024-02-14T02:23:05;8.0;;;6.4;;
68375;SDS011;55318;52.068;5.188;2024-02-14T02:24:41;9.71;;;5.9;;
68375;SDS011;55318;52.068;5.188;2024-02-14T02:26:17;6.9;;;5.5;;
68375;SDS011;55318;52.068;5.188;2024-02-14T02:29:30;8.71;;;6.3;;
68375;SDS011;55318;52.068;5.188;2024-02-14T02:31:09;8.2;;;6.2;;
68375;SDS011;55318;52.068;5.188;2024-02-14T02:32:45;8.81;;;5.9;;
68375;SDS011;55318;52.068;5.188;2024-02-14T02:35:57;7.4;;;6.3;;
68375;SDS011;55318;52.068;5.188;2024-02-14T02:37:34;9.0;;;6.2;;
68375;SDS011;55318;52.068;5.188;2024-02-14T02:39:11;8.6;;;5.7;;
68375;SDS011;55318;52.068;5.188;2024-02-14T02:40:47;8.81;;;5.8;;
68375;SDS011;55318;52.068;5.188;2024-02-14T02:43:59;8.71;;;6.5;;
68375;SDS011;55318;52.068;5.188;2024-02-14T02:45:36;7.4;;;6.1;;
68375;SDS011;55318;52.068;5.188;2024-02-14T02:47:12;8.1;;;6.2;;
68375;SDS011;55318;52.068;5.188;2024-02-14T02:50:24;6.6;;;5.4;;
68375;SDS011;55318;52.068;5.188;2024-02-14T02:52:00;7.2;;;5.5;;
68375;SDS011;55318;52.068;5.188;2024-02-14T02:53:36;7.0;;;6.1;;
68375;SDS011;55318;52.068;5.188;2024-02-14T02:56:48;7.9;;;5.9;;
68375;SDS011;55318;52.068;5.188;2024-02-14T02:58:24;7.9;;;6.0;;
68375;SDS011;55318;52.068;5.188;2024-02-14T03:00:00;9.81;;;6.3;;
68375;SDS011;55318;52.068;5.188;2024-02-14T03:03:13;8.0;;;6.2;;
68375;SDS011;55318;52.068;5.188;2024-02-14T03:04:49;6.7;;;5.3;;
68375;SDS011;55318;52.068;5.188;2024-02-14T03:06:25;6.9;;;5.2;;
68375;SDS011;55318;52.068;5.188;2024-02-14T03:08:01;7.2;;;6.1;;
68375;SDS011;55318;52.068;5.188;2024-02-14T03:11:14;6.9;;;6.0;;
68375;SDS011;55318;52.068;5.188;2024-02-14T03:12:51;8.4;;;6.6;;
68375;SDS011;55318;52.068;5.188;2024-02-14T03:14:28;7.8;;;6.1;;
68375;SDS011;55318;52.068;5.188;2024-02-14T03:17:41;9.21;;;5.9;;
68375;SDS011;55318;52.068;5.188;2024-02-14T03:19:17;8.4;;;6.5;;
68375;SDS011;55318;52.068;5.188;2024-02-14T03:20:53;8.9;;;6.5;;
68375;SDS011;55318;52.068;5.188;2024-02-14T03:24:05;9.21;;;7.1;;
68375;SDS011;55318;52.068;5.188;2024-02-14T03:25:41;8.9;;;6.8;;
68375;SDS011;55318;52.068;5.188;2024-02-14T03:27:18;8.1;;;6.0;;
68375;SDS011;55318;52.068;5.188;2024-02-14T03:28:54;8.4;;;7.0;;
68375;SDS011;55318;52.068;5.188;2024-02-14T03:32:06;8.2;;;6.5;;
68375;SDS011;55318;52.068;5.188;2024-02-14T03:33:43;10.7;;;6.8;;
68375;SDS011;55318;52.068;5.188;2024-02-14T03:35:19;8.6;;;5.6;;
68375;SDS011;55318;52.068;5.188;2024-02-14T03:38:31;9.5;;;6.5;;
68375;SDS011;55318;52.068;5.188;2024-02-14T03:40:08;12.3;;;6.2;;
68375;SDS011;55318;52.068;5.188;2024-02-14T03:41:44;10.8;;;6.7;;
68375;SDS011;55318;52.068;5.188;2024-02-14T03:44:56;9.31;;;5.9;;
68375;SDS011;55318;52.068;5.188;2024-02-14T03:46:32;10.7;;;6.2;;
68375;SDS011;55318;52.068;5.188;2024-02-14T03:48:09;9.5;;;6.3;;
68375;SDS011;55318;52.068;5.188;2024-02-14T03:51:22;10.0;;;6.9;;
68375;SDS011;55318;52.068;5.188;2024-02-14T03:52:59;11.0;;;6.8;;
68375;SDS011;55318;52.068;5.188;2024-02-14T03:54:35;12.3;;;7.7;;
68375;SDS011;55318;52.068;5.188;2024-02-14T03:56:11;10.6;;;6.2;;
68375;SDS011;55318;52.068;5.188;2024-02-14T03:59:23;11.8;;;6.8;;
68375;SDS011;55318;52.068;5.188;2024-02-14T04:00:59;13.5;;;6.8;;
68375;SDS011;55318;52.068;5.188;2024-02-14T04:02:36;9.9;;;6.2;;
68375;SDS011;55318;52.068;5.188;2024-02-14T04:05:48;11.9;;;7.4;;
68375;SDS011;55318;52.068;5.188;2024-02-14T04:07:24;11.7;;;6.7;;
68375;SDS011;55318;52.068;5.188;2024-02-14T04:09:00;14.3;;;7.2;;
68375;SDS011;55318;52.068;5.188;2024-02-14T04:12:12;10.4;;;5.7;;
68375;SDS011;55318;52.068;5.188;2024-02-14T04:13:48;9.6;;;7.4;;
68375;SDS011;55318;52.068;5.188;2024-02-14T04:15:24;11.1;;;6.3;;
68375;SDS011;55318;52.068;5.188;2024-02-14T04:17:00;10.6;;;5.8;;
68375;SDS011;55318;52.068;5.188;2024-02-14T04:20:13;8.0;;;5.7;;
68375;SDS011;55318;52.068;5.188;2024-02-14T04:21:49;11.6;;;6.0;;
68375;SDS011;55318;52.068;5.188;2024-02-14T04:23:25;9.81;;;6.3;;
68375;SDS011;55318;52.068;5.188;2024-02-14T04:26:37;10.0;;;6.4;;
68375;SDS011;55318;52.068;5.188;2024-02-14T04:28:13;14.5;;;6.8;;
68375;SDS011;55318;52.068;5.188;2024-02-14T04:29:49;13.4;;;7.0;;
68375;SDS011;55318;52.068;5.188;2024-02-14T04:33:02;9.4;;;5.5;;
68375;SDS011;55318;52.068;5.188;2024-02-14T04:34:38;10.3;;;5.6;;
68375;SDS011;55318;52.068;5.188;2024-02-14T04:36:14;8.5;;;5.5;;
68375;SDS011;55318;52.068;5.188;2024-02-14T04:39:26;13.9;;;6.3;;
68375;SDS011;55318;52.068;5.188;2024-02-14T04:41:02;9.0;;;6.0;;
68375;SDS011;55318;52.068;5.188;2024-02-14T04:42:38;11.3;;;6.6;;
68375;SDS011;55318;52.068;5.188;2024-02-14T04:44:14;10.4;;;6.3;;
68375;SDS011;55318;52.068;5.188;2024-02-14T04:47:26;11.6;;;6.5;;
68375;SDS011;55318;52.068;5.188;2024-02-14T04:49:03;11.0;;;6.1;;
68375;SDS011;55318;52.068;5.188;2024-02-14T04:50:39;12.7;;;5.9;;
68375;SDS011;55318;52.068;5.188;2024-02-14T04:53:51;12.2;;;6.5;;
68375;SDS011;55318;52.068;5.188;2024-02-14T04:55:27;10.1;;;6.8;;
68375;SDS011;55318;52.068;5.188;2024-02-14T04:57:03;9.9;;;5.8;;
68375;SDS011;55318;52.068;5.188;2024-02-14T05:00:15;10.7;;;6.3;;
68375;SDS011;55318;52.068;5.188;2024-02-14T05:01:52;9.31;;;6.3;;
68375;SDS011;55318;52.068;5.188;2024-02-14T05:03:28;9.81;;;6.3;;
68375;SDS011;55318;52.068;5.188;2024-02-14T05:06:41;10.5;;;6.2;;
68375;SDS011;55318;52.068;5.188;2024-02-14T05:08:17;8.2;;;5.3;;
68375;SDS011;55318;52.068;5.188;2024-02-14T05:09:53;10.21;;;6.2;;
68375;SDS011;55318;52.068;5.188;2024-02-14T05:11:29;8.5;;;6.4;;
68375;SDS011;55318;52.068;5.188;2024-02-14T05:14:41;9.9;;;6.4;;
68375;SDS011;55318;52.068;5.188;2024-02-14T05:16:17;9.5;;;6.3;;
68375;SDS011;55318;52.068;5.188;2024-02-14T05:17:53;8.9;;;6.1;;
68375;SDS011;55318;52.068;5.188;2024-02-14T05:21:06;9.71;;;6.1;;
68375;SDS011;55318;52.068;5.188;2024-02-14T05:22:43;11.5;;;6.3;;
68375;SDS011;55318;52.068;5.188;2024-02-14T05:24:19;9.81;;;6.7;;
68375;SDS011;55318;52.068;5.188;2024-02-14T05:27:31;12.0;;;6.5;;
68375;SDS011;55318;52.068;5.188;2024-02-14T05:29:07;12.4;;;6.5;;
68375;SDS011;55318;52.068;5.188;2024-02-14T05:30:43;8.81;;;6.0;;
68375;SDS011;55318;52.068;5.188;2024-02-14T05:32:19;9.6;;;6.2;;
68375;SDS011;55318;52.068;5.188;2024-02-14T05:35:32;8.31;;;5.3;;
68375;SDS011;55318;52.068;5.188;2024-02-14T05:37:08;8.81;;;5.8;;
68375;SDS011;55318;52.068;5.188;2024-02-14T05:38:44;10.8;;;5.9;;
68375;SDS011;55318;52.068;5.188;2024-02-14T05:41:56;9.0;;;5.8;;
68375;SDS011;55318;52.068;5.188;2024-02-14T05:43:32;9.4;;;5.3;;
68375;SDS011;55318;52.068;5.188;2024-02-14T05:45:08;7.4;;;5.3;;
68375;SDS011;55318;52.068;5.188;2024-02-14T05:48:21;6.9;;;5.3;;
68375;SDS011;55318;52.068;5.188;2024-02-14T05:49:57;6.6;;;5.2;;
68375;SDS011;55318;52.068;5.188;2024-02-14T05:51:34;7.8;;;5.3;;
68375;SDS011;55318;52.068;5.188;2024-02-14T05:54:46;6.8;;;5.9;;
68375;SDS011;55318;52.068;5.188;2024-02-14T05:56:22;8.71;;;5.3;;
68375;SDS011;55318;52.068;5.188;2024-02-14T05:57:58;8.1;;;5.4;;
68375;SDS011;55318;52.068;5.188;2024-02-14T05:59:34;8.2;;;5.11;;
68375;SDS011;55318;52.068;5.188;2024-02-14T06:02:46;6.4;;;4.7;;
68375;SDS011;55318;52.068;5.188;2024-02-14T06:04:22;6.8;;;5.5;;
68375;SDS011;55318;52.068;5.188;2024-02-14T06:05:59;8.2;;;5.3;;
68375;SDS011;55318;52.068;5.188;2024-02-14T06:09:11;5.8;;;4.61;;
68375;SDS011;55318;52.068;5.188;2024-02-14T06:10:47;5.3;;;4.8;;
68375;SDS011;55318;52.068;5.188;2024-02-14T06:12:23;8.1;;;4.7;;
68375;SDS011;55318;52.068;5.188;2024-02-14T06:15:35;6.8;;;5.4;;
68375;SDS011;55318;52.068;5.188;2024-02-14T06:17:11;5.6;;;4.3;;
68375;SDS011;55318;52.068;5.188;2024-02-14T06:18:47;5.8;;;4.3;;
68375;SDS011;55318;52.068;5.188;2024-02-14T06:21:59;5.8;;;4.8;;
68375;SDS011;55318;52.068;5.188;2024-02-14T06:23:35;5.5;;;4.7;;
68375;SDS011;55318;52.068;5.188;2024-02-14T06:25:11;6.9;;;5.6;;
68375;SDS011;55318;52.068;5.188;2024-02-14T06:26:47;6.4;;;5.11;;
68375;SDS011;55318;52.068;5.188;2024-02-14T06:29:59;5.6;;;4.7;;
68375;SDS011;55318;52.068;5.188;2024-02-14T06:31:35;7.0;;;5.6;;
68375;SDS011;55318;52.068;5.188;2024-02-14T06:33:11;6.7;;;6.0;;
68375;SDS011;55318;52.068;5.188;2024-02-14T06:36:24;10.7;;;6.6;;
68375;SDS011;55318;52.068;5.188;2024-02-14T06:38:00;14.0;;;6.5;;
68375;SDS011;55318;52.068;5.188;2024-02-14T06:39:36;8.81;;;6.8;;
68375;SDS011;55318;52.068;5.188;2024-02-14T06:42:48;9.9;;;6.1;;
68375;SDS011;55318;52.068;5.188;2024-02-14T06:44:24;9.4;;;6.4;;
68375;SDS011;55318;52.068;5.188;2024-02-14T06:46:00;11.0;;;7.0;;
68375;SDS011;55318;52.068;5.188;2024-02-14T06:49:12;8.81;;;6.1;;
68375;SDS011;55318;52.068;5.188;2024-02-14T06:50:48;16.2;;;7.5;;
68375;SDS011;55318;52.068;5.188;2024-02-14T06:52:25;8.31;;;6.7;;
68375;SDS011;55318;52.068;5.188;2024-02-14T06:54:02;8.31;;;7.0;;
68375;SDS011;55318;52.068;5.188;2024-02-14T06:57:14;11.1;;;7.3;;
68375;SDS011;55318;52.068;5.188;2024-02-14T06:58:50;12.7;;;7.4;;
68375;SDS011;55318;52.068;5.188;2024-02-14T07:00:26;12.0;;;8.1;;
68375;SDS011;55318;52.068;5.188;2024-02-14T07:03:40;11.2;;;7.5;;
68375;SDS011;55318;52.068;5.188;2024-02-14T07:05:16;12.8;;;7.4;;
68375;SDS011;55318;52.068;5.188;2024-02-14T07:06:53;11.5;;;7.6;;
68375;SDS011;55318;52.068;5.188;2024-02-14T07:10:05;12.7;;;7.7;;
68375;SDS011;55318;52.068;5.188;2024-02-14T07:11:42;14.5;;;8.4;;
68375;SDS011;55318;52.068;5.188;2024-02-14T07:13:18;12.6;;;8.1;;
68375;SDS011;55318;52.068;5.188;2024-02-14T07:14:54;14.0;;;8.31;;
68375;SDS011;55318;52.068;5.188;2024-02-14T07:18:06;13.8;;;8.4;;
68375;SDS011;55318;52.068;5.188;2024-02-14T07:19:42;12.3;;;8.0;;
68375;SDS011;55318;52.068;5.188;2024-02-14T07:21:18;11.9;;;8.5;;
68375;SDS011;55318;52.068;5.188;2024-02-14T07:24:30;14.8;;;8.71;;
68375;SDS011;55318;52.068;5.188;2024-02-14T07:26:07;13.2;;;9.5;;
68375;SDS011;55318;52.068;5.188;2024-02-14T07:27:43;12.8;;;8.4;;
68375;SDS011;55318;52.068;5.188;2024-02-14T07:30:55;12.3;;;8.4;;
68375;SDS011;55318;52.068;5.188;2024-02-14T07:32:31;11.1;;;7.9;;
68375;SDS011;55318;52.068;5.188;2024-02-14T07:34:07;13.3;;;8.0;;
68375;SDS011;55318;52.068;5.188;2024-02-14T07:37:19;11.2;;;8.1;;
68375;SDS011;55318;52.068;5.188;2024-02-14T07:38:55;13.1;;;8.4;;
68375;SDS011;55318;52.068;5.188;2024-02-14T07:40:31;13.6;;;9.1;;
68375;SDS011;55318;52.068;5.188;2024-02-14T07:42:11;10.5;;;8.0;;
68375;SDS011;55318;52.068;5.188;2024-02-14T07:45:23;10.1;;;7.2;;
68375;SDS011;55318;52.068;5.188;2024-02-14T07:46:59;11.3;;;7.8;;
68375;SDS011;55318;52.068;5.188;2024-02-14T07:48:35;10.9;;;7.8;;
68375;SDS011;55318;52.068;5.188;2024-02-14T07:51:47;13.0;;;7.9;;
68375;SDS011;55318;52.068;5.188;2024-02-14T07:53:23;8.4;;;6.8;;
68375;SDS011;55318;52.068;5.188;2024-02-14T07:54:59;14.2;;;7.1;;
68375;SDS011;55318;52.068;5.188;2024-02-14T07:58:12;11.0;;;7.6;;
68375;SDS011;55318;52.068;5.188;2024-02-14T07:59:48;14.3;;;7.8;;
68375;SDS011;55318;52.068;5.188;2024-02-14T08:01:24;8.71;;;6.9;;
68375;SDS011;55318;52.068;5.188;2024-02-14T08:03:01;11.3;;;7.2;;
68375;SDS011;55318;52.068;5.188;2024-02-14T08:06:13;10.8;;;7.5;;
68375;SDS011;55318;52.068;5.188;2024-02-14T08:07:49;11.1;;;8.0;;
68375;SDS011;55318;52.068;5.188;2024-02-14T08:09:25;10.7;;;7.6;;
68375;SDS011;55318;52.068;5.188;2024-02-14T08:12:37;12.8;;;7.4;;
68375;SDS011;55318;52.068;5.188;2024-02-14T08:14:14;12.8;;;7.4;;
68375;SDS011;55318;52.068;5.188;2024-02-14T08:15:53;11.9;;;7.1;;
68375;SDS011;55318;52.068;5.188;2024-02-14T08:19:05;10.8;;;7.6;;
68375;SDS011;55318;52.068;5.188;2024-02-14T08:20:41;10.6;;;7.1;;
68375;SDS011;55318;52.068;5.188;2024-02-14T08:22:17;9.81;;;6.8;;
68375;SDS011;55318;52.068;5.188;2024-02-14T08:23:53;9.9;;;7.6;;
68375;SDS011;55318;52.068;5.188;2024-02-14T08:27:06;12.0;;;7.2;;
68375;SDS011;55318;52.068;5.188;2024-02-14T08:28:42;11.8;;;7.4;;
68375;SDS011;55318;52.068;5.188;2024-02-14T08:30:18;10.3;;;6.9;;
68375;SDS011;55318;52.068;5.188;2024-02-14T08:33:30;9.6;;;7.1;;
68375;SDS011;55318;52.068;5.188;2024-02-14T08:35:07;11.5;;;8.0;;
68375;SDS011;55318;52.068;5.188;2024-02-14T08:36:44;11.6;;;7.6;;
68375;SDS011;55318;52.068;5.188;2024-02-14T08:39:56;14.6;;;8.2;;
68375;SDS011;55318;52.068;5.188;2024-02-14T08:41:32;10.9;;;7.2;;
68375;SDS011;55318;52.068;5.188;2024-02-14T08:43:08;11.0;;;7.7;;
68375;SDS011;55318;52.068;5.188;2024-02-14T08:46:20;10.7;;;7.4;;
68375;SDS011;55318;52.068;5.188;2024-02-14T08:47:56;10.9;;;7.9;;
68375;SDS011;55318;52.068;5.188;2024-02-14T08:49:36;9.31;;;7.1;;
68375;SDS011;55318;52.068;5.188;2024-02-14T08:51:12;9.71;;;7.7;;
68375;SDS011;55318;52.068;5.188;2024-02-14T08:54:24;12.9;;;8.6;;
68375;SDS011;55318;52.068;5.188;2024-02-14T08:56:00;13.3;;;7.6;;
68375;SDS011;55318;52.068;5.188;2024-02-14T08:57:36;8.81;;;6.9;;
68375;SDS011;55318;52.068;5.188;2024-02-14T09:00:48;15.6;;;7.8;;
68375;SDS011;55318;52.068;5.188;2024-02-14T09:02:24;9.1;;;6.5;;
68375;SDS011;55318;52.068;5.188;2024-02-14T09:04:00;9.1;;;6.1;;
68375;SDS011;55318;52.068;5.188;2024-02-14T09:07:13;8.9;;;6.6;;
68375;SDS011;55318;52.068;5.188;2024-02-14T09:08:49;7.7;;;6.2;;
68375;SDS011;55318;52.068;5.188;2024-02-14T09:10:25;9.5;;;6.9;;
68375;SDS011;55318;52.068;5.188;2024-02-14T09:12:01;9.71;;;6.5;;
68375;SDS011;55318;52.068;5.188;2024-02-14T09:15:13;9.71;;;6.6;;
68375;SDS011;55318;52.068;5.188;2024-02-14T09:16:49;7.7;;;6.2;;
68375;SDS011;55318;52.068;5.188;2024-02-14T09:18:25;8.5;;;6.5;;
68375;SDS011;55318;52.068;5.188;2024-02-14T09:21:37;9.0;;;6.8;;
68375;SDS011;55318;52.068;5.188;2024-02-14T09:23:14;12.9;;;7.1;;
68375;SDS011;55318;52.068;5.188;2024-02-14T09:24:50;9.81;;;7.3;;
68375;SDS011;55318;52.068;5.188;2024-02-14T09:28:02;10.8;;;7.2;;
68375;SDS011;55318;52.068;5.188;2024-02-14T09:29:38;9.0;;;7.5;;
68375;SDS011;55318;52.068;5.188;2024-02-14T09:31:17;12.0;;;7.8;;
68375;SDS011;55318;52.068;5.188;2024-02-14T09:32:54;12.0;;;7.8;;
68375;SDS011;55318;52.068;5.188;2024-02-14T09:36:09;11.9;;;8.5;;
68375;SDS011;55318;52.068;5.188;2024-02-14T09:37:45;10.9;;;8.6;;
68375;SDS011;55318;52.068;5.188;2024-02-14T09:39:22;12.6;;;8.9;;
68375;SDS011;55318;52.068;5.188;2024-02-14T09:42:43;13.4;;;9.4;;
68375;SDS011;55318;52.068;5.188;2024-02-14T09:44:24;11.9;;;8.71;;
68375;SDS011;55318;52.068;5.188;2024-02-14T09:46:03;12.3;;;9.1;;
68375;SDS011;55318;52.068;5.188;2024-02-14T09:47:40;11.0;;;8.2;;
68375;SDS011;55318;52.068;5.188;2024-02-14T09:50:55;12.0;;;7.8;;
68375;SDS011;55318;52.068;5.188;2024-02-14T09:52:32;14.2;;;8.71;;
68375;SDS011;55318;52.068;5.188;2024-02-14T09:54:09;10.4;;;7.2;;
68375;SDS011;55318;52.068;5.188;2024-02-14T09:57:24;13.4;;;8.31;;
68375;SDS011;55318;52.068;5.188;2024-02-14T09:59:01;10.3;;;7.5;;
68375;SDS011;55318;52.068;5.188;2024-02-14T10:00:38;9.0;;;7.1;;
68375;SDS011;55318;52.068;5.188;2024-02-14T10:02:14;9.4;;;6.7;;
68375;SDS011;55318;52.068;5.188;2024-02-14T10:05:28;10.3;;;6.5;;
68375;SDS011;55318;52.068;5.188;2024-02-14T10:07:04;8.9;;;6.1;;
68375;SDS011;55318;52.068;5.188;2024-02-14T10:08:40;10.1;;;6.0;;
68375;SDS011;55318;52.068;5.188;2024-02-14T10:11:52;8.9;;;6.2;;
68375;SDS011;55318;52.068;5.188;2024-02-14T10:13:29;9.31;;;6.4;;
68375;SDS011;55318;52.068;5.188;2024-02-14T10:15:05;7.5;;;5.6;;
68375;SDS011;55318;52.068;5.188;2024-02-14T10:18:18;9.1;;;6.6;;
68375;SDS011;55318;52.068;5.188;2024-02-14T10:19:54;8.9;;;6.1;;
68375;SDS011;55318;52.068;5.188;2024-02-14T10:21:31;9.31;;;6.1;;
68375;SDS011;55318;52.068;5.188;2024-02-14T10:23:07;6.5;;;5.8;;
68375;SDS011;55318;52.068;5.188;2024-02-14T10:26:21;9.0;;;5.7;;
68375;SDS011;55318;52.068;5.188;2024-02-14T10:28:03;9.31;;;6.0;;
68375;SDS011;55318;52.068;5.188;2024-02-14T10:29:39;7.5;;;5.3;;
68375;SDS011;55318;52.068;5.188;2024-02-14T10:32:57;7.3;;;5.9;;
68375;SDS011;55318;52.068;5.188;2024-02-14T10:34:34;7.0;;;5.3;;
68375;SDS011;55318;52.068;5.188;2024-02-14T10:36:13;9.6;;;6.2;;
68375;SDS011;55318;52.068;5.188;2024-02-14T10:37:50;8.4;;;5.3;;
68375;SDS011;55318;52.068;5.188;2024-02-14T10:41:05;6.9;;;5.7;;
68375;SDS011;55318;52.068;5.188;2024-02-14T10:42:41;7.0;;;5.3;;
68375;SDS011;55318;52.068;5.188;2024-02-14T10:44:17;9.71;;;6.6;;
68375;SDS011;55318;52.068;5.188;2024-02-14T10:47:34;8.1;;;5.5;;
68375;SDS011;55318;52.068;5.188;2024-02-14T10:49:11;8.31;;;5.0;;
68375;SDS011;55318;52.068;5.188;2024-02-14T10:50:48;6.9;;;5.5;;
68375;SDS011;55318;52.068;5.188;2024-02-14T10:52:26;6.5;;;5.5;;
68375;SDS011;55318;52.068;5.188;2024-02-14T10:55:47;6.8;;;4.7;;
68375;SDS011;55318;52.068;5.188;2024-02-14T10:57:24;5.9;;;4.41;;
68375;SDS011;55318;52.068;5.188;2024-02-14T10:59:01;6.4;;;4.41;;
68375;SDS011;55318;52.068;5.188;2024-02-14T11:02:16;5.5;;;4.61;;
68375;SDS011;55318;52.068;5.188;2024-02-14T11:03:55;6.1;;;4.2;;
68375;SDS011;55318;52.068;5.188;2024-02-14T11:05:31;5.11;;;4.2;;
68375;SDS011;55318;52.068;5.188;2024-02-14T11:07:08;6.1;;;4.7;;
68375;SDS011;55318;52.068;5.188;2024-02-14T11:10:36;7.0;;;4.5;;
68375;SDS011;55318;52.068;5.188;2024-02-14T11:12:13;6.1;;;4.3;;
68375;SDS011;55318;52.068;5.188;2024-02-14T11:13:51;6.3;;;4.1;;
68375;SDS011;55318;52.068;5.188;2024-02-14T11:15:28;6.3;;;3.9;;
68375;SDS011;55318;52.068;5.188;2024-02-14T11:18:44;4.8;;;3.8;;
68375;SDS011;55318;52.068;5.188;2024-02-14T11:20:21;5.0;;;4.1;;
68375;SDS011;55318;52.068;5.188;2024-02-14T11:22:10;5.8;;;4.1;;
68375;SDS011;55318;52.068;5.188;2024-02-14T11:23:52;6.4;;;4.8;;
68375;SDS011;55318;52.068;5.188;2024-02-14T11:27:09;5.2;;;4.3;;
68375;SDS011;55318;52.068;5.188;2024-02-14T11:28:46;7.3;;;4.3;;
68375;SDS011;55318;52.068;5.188;2024-02-14T11:30:28;5.0;;;4.41;;
68375;SDS011;55318;52.068;5.188;2024-02-14T11:33:43;6.7;;;4.2;;
68375;SDS011;55318;52.068;5.188;2024-02-14T11:35:19;6.4;;;4.2;;
68375;SDS011;55318;52.068;5.188;2024-02-14T11:36:55;6.3;;;4.5;;
68375;SDS011;55318;52.068;5.188;2024-02-14T11:38:35;5.6;;;4.5;;
68375;SDS011;55318;52.068;5.188;2024-02-14T11:41:47;7.2;;;4.41;;
68375;SDS011;55318;52.068;5.188;2024-02-14T11:43:23;6.3;;;4.41;;
68375;SDS011;55318;52.068;5.188;2024-02-14T11:45:00;7.4;;;4.8;;
68375;SDS011;55318;52.068;5.188;2024-02-14T11:48:13;6.0;;;4.7;;
68375;SDS011;55318;52.068;5.188;2024-02-14T11:49:49;6.3;;;4.5;;
68375;SDS011;55318;52.068;5.188;2024-02-14T11:51:26;5.5;;;4.5;;
68375;SDS011;55318;52.068;5.188;2024-02-14T11:54:39;9.71;;;5.3;;
68375;SDS011;55318;52.068;5.188;2024-02-14T11:56:15;9.71;;;5.3;;
68375;SDS011;55318;52.068;5.188;2024-02-14T11:57:51;6.1;;;5.11;;
68375;SDS011;55318;52.068;5.188;2024-02-14T11:59:28;9.31;;;5.9;;
68375;SDS011;55318;52.068;5.188;2024-02-14T12:02:41;6.3;;;4.91;;
68375;SDS011;55318;52.068;5.188;2024-02-14T12:04:17;7.4;;;5.0;;
68375;SDS011;55318;52.068;5.188;2024-02-14T12:05:54;8.4;;;4.5;;
68375;SDS011;55318;52.068;5.188;2024-02-14T12:09:08;5.2;;;4.3;;
68375;SDS011;55318;52.068;5.188;2024-02-14T12:10:45;7.2;;;4.41;;
68375;SDS011;55318;52.068;5.188;2024-02-14T12:12:22;6.0;;;4.61;;
68375;SDS011;55318;52.068;5.188;2024-02-14T12:14:00;5.4;;;4.41;;
68375;SDS011;55318;52.068;5.188;2024-02-14T12:17:15;8.0;;;5.6;;
68375;SDS011;55318;52.068;5.188;2024-02-14T12:19:00;7.2;;;4.91;;
68375;SDS011;55318;52.068;5.188;2024-02-14T12:20:40;4.3;;;3.8;;
68375;SDS011;55318;52.068;5.188;2024-02-14T12:23:57;7.9;;;4.8;;
68375;SDS011;55318;52.068;5.188;2024-02-14T12:25:34;9.21;;;4.2;;
68375;SDS011;55318;52.068;5.188;2024-02-14T12:27:10;6.7;;;4.7;;
68375;SDS011;55318;52.068;5.188;2024-02-14T12:28:46;5.0;;;4.5;;
68375;SDS011;55318;52.068;5.188;2024-02-14T12:32:04;4.91;;;4.1;;
68375;SDS011;55318;52.068;5.188;2024-02-14T12:33:40;4.41;;;4.0;;
68375;SDS011;55318;52.068;5.188;2024-02-14T12:35:16;6.1;;;4.5;;
68375;SDS011;55318;52.068;5.188;2024-02-14T12:38:28;4.7;;;3.2;;
68375;SDS011;55318;52.068;5.188;2024-02-14T12:40:05;4.91;;;3.9;;
68375;SDS011;55318;52.068;5.188;2024-02-14T12:41:42;4.61;;;3.8;;
68375;SDS011;55318;52.068;5.188;2024-02-14T12:43:19;3.8;;;3.3;;
68375;SDS011;55318;52.068;5.188;2024-02-14T12:46:32;4.41;;;3.8;;
68375;SDS011;55318;52.068;5.188;2024-02-14T12:48:09;5.2;;;3.8;;
68375;SDS011;55318;52.068;5.188;2024-02-14T12:49:46;4.61;;;3.8;;
68375;SDS011;55318;52.068;5.188;2024-02-14T12:52:59;4.2;;;3.6;;